sensor_id;sensor_type;location;lat;lon;timestamp;P1;durP1;ratioP1;P2;durP2;ratioP2
44750;SDS011;30477;48.224;11.470;2023-05-27T00:00:08;11.75;;;9.63;;
44750;SDS011;30477;48.224;11.470;2023-05-27T00:02:34;12.63;;;9.30;;
44750;SDS011;30477;48.224;11.470;2023-05-27T00:05:00;12.52;;;9.60;;
44750;SDS011;30477;48.224;11.470;2023-05-27T00:07:26;15.32;;;10.02;;
44750;SDS011;30477;48.224;11.470;2023-05-27T00:09:51;15.50;;;9.83;;
44750;SDS011;30477;48.224;11.470;2023-05-27T00:12:17;18.77;;;9.93;;
44750;SDS011;30477;48.224;11.470;2023-05-27T00:14:42;13.63;;;9.98;;
44750;SDS011;30477;48.224;11.470;2023-05-27T00:17:08;13.85;;;9.93;;
44750;SDS011;30477;48.224;11.470;2023-05-27T00:19:42;14.77;;;10.20;;
44750;SDS011;30477;48.224;11.470;2023-05-27T00:22:10;14.73;;;9.93;;
44750;SDS011;30477;48.224;11.470;2023-05-27T00:24:36;14.93;;;9.85;;
44750;SDS011;30477;48.224;11.470;2023-05-27T00:27:04;15.55;;;10.48;;
44750;SDS011;30477;48.224;11.470;2023-05-27T00:31:55;16.93;;;9.67;;
44750;SDS011;30477;48.224;11.470;2023-05-27T00:34:20;15.57;;;9.67;;
44750;SDS011;30477;48.224;11.470;2023-05-27T00:36:46;12.00;;;9.88;;
44750;SDS011;30477;48.224;11.470;2023-05-27T00:39:12;15.90;;;10.20;;
44750;SDS011;30477;48.224;11.470;2023-05-27T00:41:37;13.33;;;10.73;;
44750;SDS011;30477;48.224;11.470;2023-05-27T00:44:03;15.85;;;10.30;;
44750;SDS011;30477;48.224;11.470;2023-05-27T00:46:28;13.47;;;10.53;;
44750;SDS011;30477;48.224;11.470;2023-05-27T00:48:54;13.73;;;9.88;;
44750;SDS011;30477;48.224;11.470;2023-05-27T00:51:19;13.50;;;10.30;;
44750;SDS011;30477;48.224;11.470;2023-05-27T00:53:45;13.05;;;9.63;;
44750;SDS011;30477;48.224;11.470;2023-05-27T00:56:11;16.67;;;10.23;;
44750;SDS011;30477;48.224;11.470;2023-05-27T00:58:40;14.57;;;10.13;;
44750;SDS011;30477;48.224;11.470;2023-05-27T01:01:07;14.15;;;10.70;;
44750;SDS011;30477;48.224;11.470;2023-05-27T01:03:32;14.23;;;10.53;;
44750;SDS011;30477;48.224;11.470;2023-05-27T01:06:03;16.33;;;10.68;;
44750;SDS011;30477;48.224;11.470;2023-05-27T01:08:55;13.45;;;10.10;;
44750;SDS011;30477;48.224;11.470;2023-05-27T01:11:43;13.35;;;10.50;;
44750;SDS011;30477;48.224;11.470;2023-05-27T01:14:14;16.13;;;10.48;;
44750;SDS011;30477;48.224;11.470;2023-05-27T01:16:41;12.90;;;10.25;;
44750;SDS011;30477;48.224;11.470;2023-05-27T01:19:14;15.88;;;10.55;;
44750;SDS011;30477;48.224;11.470;2023-05-27T01:21:47;14.13;;;10.30;;
44750;SDS011;30477;48.224;11.470;2023-05-27T01:24:15;16.73;;;10.43;;
44750;SDS011;30477;48.224;11.470;2023-05-27T01:26:41;14.47;;;10.53;;
44750;SDS011;30477;48.224;11.470;2023-05-27T01:31:41;14.10;;;9.95;;
44750;SDS011;30477;48.224;11.470;2023-05-27T01:34:13;15.07;;;10.45;;
44750;SDS011;30477;48.224;11.470;2023-05-27T01:36:45;14.60;;;10.63;;
44750;SDS011;30477;48.224;11.470;2023-05-27T01:39:13;13.23;;;10.32;;
44750;SDS011;30477;48.224;11.470;2023-05-27T01:41:40;13.35;;;10.80;;
44750;SDS011;30477;48.224;11.470;2023-05-27T01:44:08;13.55;;;11.02;;
44750;SDS011;30477;48.224;11.470;2023-05-27T01:46:35;14.55;;;10.65;;
44750;SDS011;30477;48.224;11.470;2023-05-27T01:49:02;14.57;;;11.43;;
44750;SDS011;30477;48.224;11.470;2023-05-27T01:51:27;14.85;;;11.00;;
44750;SDS011;30477;48.224;11.470;2023-05-27T01:53:53;16.83;;;10.27;;
44750;SDS011;30477;48.224;11.470;2023-05-27T01:56:18;17.23;;;10.80;;
44750;SDS011;30477;48.224;11.470;2023-05-27T01:58:43;14.67;;;10.63;;
44750;SDS011;30477;48.224;11.470;2023-05-27T02:01:09;15.80;;;10.93;;
44750;SDS011;30477;48.224;11.470;2023-05-27T02:03:34;14.70;;;10.87;;
44750;SDS011;30477;48.224;11.470;2023-05-27T02:06:00;14.63;;;10.97;;
44750;SDS011;30477;48.224;11.470;2023-05-27T02:08:25;15.37;;;10.77;;
44750;SDS011;30477;48.224;11.470;2023-05-27T02:10:52;15.90;;;10.25;;
44750;SDS011;30477;48.224;11.470;2023-05-27T02:13:18;17.07;;;11.93;;
44750;SDS011;30477;48.224;11.470;2023-05-27T02:15:43;14.87;;;10.97;;
44750;SDS011;30477;48.224;11.470;2023-05-27T02:18:08;14.73;;;11.33;;
44750;SDS011;30477;48.224;11.470;2023-05-27T02:20:35;16.42;;;10.90;;
44750;SDS011;30477;48.224;11.470;2023-05-27T02:23:03;15.40;;;11.67;;
44750;SDS011;30477;48.224;11.470;2023-05-27T02:25:31;17.92;;;10.93;;
44750;SDS011;30477;48.224;11.470;2023-05-27T02:27:56;17.70;;;11.10;;
44750;SDS011;30477;48.224;11.470;2023-05-27T02:30:21;15.77;;;11.40;;
44750;SDS011;30477;48.224;11.470;2023-05-27T02:32:47;15.57;;;11.17;;
44750;SDS011;30477;48.224;11.470;2023-05-27T02:35:12;17.60;;;12.07;;
44750;SDS011;30477;48.224;11.470;2023-05-27T02:37:39;19.27;;;11.15;;
44750;SDS011;30477;48.224;11.470;2023-05-27T02:40:05;16.33;;;11.73;;
44750;SDS011;30477;48.224;11.470;2023-05-27T02:42:31;14.23;;;11.65;;
44750;SDS011;30477;48.224;11.470;2023-05-27T02:44:56;14.77;;;11.00;;
44750;SDS011;30477;48.224;11.470;2023-05-27T02:47:21;15.50;;;10.93;;
44750;SDS011;30477;48.224;11.470;2023-05-27T02:49:47;17.77;;;11.30;;
44750;SDS011;30477;48.224;11.470;2023-05-27T02:52:12;15.60;;;11.00;;
44750;SDS011;30477;48.224;11.470;2023-05-27T02:54:37;17.40;;;11.63;;
44750;SDS011;30477;48.224;11.470;2023-05-27T02:57:03;15.23;;;10.80;;
44750;SDS011;30477;48.224;11.470;2023-05-27T02:59:28;18.93;;;12.27;;
44750;SDS011;30477;48.224;11.470;2023-05-27T03:01:53;15.37;;;11.67;;
44750;SDS011;30477;48.224;11.470;2023-05-27T03:04:19;13.17;;;11.40;;
44750;SDS011;30477;48.224;11.470;2023-05-27T03:06:46;14.95;;;11.98;;
44750;SDS011;30477;48.224;11.470;2023-05-27T03:09:12;17.98;;;11.55;;
44750;SDS011;30477;48.224;11.470;2023-05-27T03:11:38;17.67;;;11.75;;
44750;SDS011;30477;48.224;11.470;2023-05-27T03:14:04;15.83;;;11.80;;
44750;SDS011;30477;48.224;11.470;2023-05-27T03:16:29;19.10;;;11.37;;
44750;SDS011;30477;48.224;11.470;2023-05-27T03:18:55;16.90;;;11.27;;
44750;SDS011;30477;48.224;11.470;2023-05-27T03:21:20;17.67;;;11.33;;
44750;SDS011;30477;48.224;11.470;2023-05-27T03:23:46;16.75;;;11.57;;
44750;SDS011;30477;48.224;11.470;2023-05-27T03:26:11;15.87;;;11.67;;
44750;SDS011;30477;48.224;11.470;2023-05-27T03:28:37;17.30;;;11.80;;
44750;SDS011;30477;48.224;11.470;2023-05-27T03:31:02;17.60;;;11.50;;
44750;SDS011;30477;48.224;11.470;2023-05-27T03:33:28;17.27;;;12.05;;
44750;SDS011;30477;48.224;11.470;2023-05-27T03:35:53;19.43;;;12.40;;
44750;SDS011;30477;48.224;11.470;2023-05-27T03:38:21;18.80;;;12.02;;
44750;SDS011;30477;48.224;11.470;2023-05-27T03:40:47;16.05;;;12.13;;
44750;SDS011;30477;48.224;11.470;2023-05-27T03:43:12;20.73;;;12.27;;
44750;SDS011;30477;48.224;11.470;2023-05-27T03:45:37;17.03;;;12.10;;
44750;SDS011;30477;48.224;11.470;2023-05-27T03:48:03;17.67;;;12.63;;
44750;SDS011;30477;48.224;11.470;2023-05-27T03:50:28;21.43;;;12.47;;
44750;SDS011;30477;48.224;11.470;2023-05-27T03:52:54;15.90;;;11.77;;
44750;SDS011;30477;48.224;11.470;2023-05-27T03:55:19;18.37;;;11.60;;
44750;SDS011;30477;48.224;11.470;2023-05-27T03:57:46;15.35;;;12.13;;
44750;SDS011;30477;48.224;11.470;2023-05-27T04:00:11;14.85;;;11.32;;
44750;SDS011;30477;48.224;11.470;2023-05-27T04:02:37;20.83;;;12.32;;
44750;SDS011;30477;48.224;11.470;2023-05-27T04:05:04;16.30;;;11.48;;
44750;SDS011;30477;48.224;11.470;2023-05-27T04:07:29;15.23;;;11.20;;
44750;SDS011;30477;48.224;11.470;2023-05-27T04:09:56;14.43;;;10.93;;
44750;SDS011;30477;48.224;11.470;2023-05-27T04:12:22;15.48;;;12.18;;
44750;SDS011;30477;48.224;11.470;2023-05-27T04:14:48;22.65;;;12.00;;
44750;SDS011;30477;48.224;11.470;2023-05-27T04:17:15;18.17;;;10.75;;
44750;SDS011;30477;48.224;11.470;2023-05-27T04:19:40;18.77;;;11.67;;
44750;SDS011;30477;48.224;11.470;2023-05-27T04:22:06;12.98;;;10.68;;
44750;SDS011;30477;48.224;11.470;2023-05-27T04:24:32;18.40;;;10.90;;
44750;SDS011;30477;48.224;11.470;2023-05-27T04:26:57;14.77;;;10.13;;
44750;SDS011;30477;48.224;11.470;2023-05-27T04:29:22;19.07;;;10.27;;
44750;SDS011;30477;48.224;11.470;2023-05-27T04:31:48;12.87;;;9.97;;
44750;SDS011;30477;48.224;11.470;2023-05-27T04:34:13;15.45;;;9.95;;
44750;SDS011;30477;48.224;11.470;2023-05-27T04:36:39;12.13;;;9.27;;
44750;SDS011;30477;48.224;11.470;2023-05-27T04:39:04;14.07;;;9.93;;
44750;SDS011;30477;48.224;11.470;2023-05-27T04:41:30;12.17;;;9.03;;
44750;SDS011;30477;48.224;11.470;2023-05-27T04:43:58;10.77;;;9.43;;
44750;SDS011;30477;48.224;11.470;2023-05-27T04:46:26;13.27;;;9.63;;
44750;SDS011;30477;48.224;11.470;2023-05-27T04:48:52;14.55;;;9.27;;
44750;SDS011;30477;48.224;11.470;2023-05-27T04:51:18;14.48;;;8.98;;
44750;SDS011;30477;48.224;11.470;2023-05-27T04:53:44;17.85;;;9.73;;
44750;SDS011;30477;48.224;11.470;2023-05-27T04:56:10;14.07;;;9.90;;
44750;SDS011;30477;48.224;11.470;2023-05-27T04:58:39;12.63;;;8.95;;
44750;SDS011;30477;48.224;11.470;2023-05-27T05:01:04;13.73;;;9.00;;
44750;SDS011;30477;48.224;11.470;2023-05-27T05:03:30;11.82;;;8.18;;
44750;SDS011;30477;48.224;11.470;2023-05-27T05:06:04;16.52;;;8.35;;
44750;SDS011;30477;48.224;11.470;2023-05-27T05:10:56;12.57;;;7.80;;
44750;SDS011;30477;48.224;11.470;2023-05-27T05:13:21;10.70;;;7.33;;
44750;SDS011;30477;48.224;11.470;2023-05-27T05:15:47;12.63;;;7.50;;
44750;SDS011;30477;48.224;11.470;2023-05-27T05:18:12;12.10;;;7.33;;
44750;SDS011;30477;48.224;11.470;2023-05-27T05:20:38;12.40;;;7.18;;
44750;SDS011;30477;48.224;11.470;2023-05-27T05:23:03;10.45;;;6.68;;
44750;SDS011;30477;48.224;11.470;2023-05-27T05:25:29;10.70;;;7.10;;
44750;SDS011;30477;48.224;11.470;2023-05-27T05:28:00;10.93;;;6.82;;
44750;SDS011;30477;48.224;11.470;2023-05-27T05:30:25;15.20;;;7.97;;
44750;SDS011;30477;48.224;11.470;2023-05-27T05:32:51;11.95;;;7.13;;
44750;SDS011;30477;48.224;11.470;2023-05-27T05:35:16;12.20;;;7.40;;
44750;SDS011;30477;48.224;11.470;2023-05-27T05:37:42;13.87;;;6.90;;
44750;SDS011;30477;48.224;11.470;2023-05-27T05:40:07;11.47;;;6.83;;
44750;SDS011;30477;48.224;11.470;2023-05-27T05:42:33;9.73;;;7.20;;
44750;SDS011;30477;48.224;11.470;2023-05-27T05:44:58;11.93;;;7.27;;
44750;SDS011;30477;48.224;11.470;2023-05-27T05:47:24;9.67;;;6.60;;
44750;SDS011;30477;48.224;11.470;2023-05-27T05:49:49;9.33;;;6.33;;
44750;SDS011;30477;48.224;11.470;2023-05-27T05:52:14;8.77;;;6.40;;
44750;SDS011;30477;48.224;11.470;2023-05-27T05:54:40;10.77;;;6.70;;
44750;SDS011;30477;48.224;11.470;2023-05-27T05:57:05;9.90;;;6.43;;
44750;SDS011;30477;48.224;11.470;2023-05-27T05:59:31;11.73;;;6.57;;
44750;SDS011;30477;48.224;11.470;2023-05-27T06:01:56;11.48;;;6.18;;
44750;SDS011;30477;48.224;11.470;2023-05-27T06:04:22;9.20;;;6.75;;
44750;SDS011;30477;48.224;11.470;2023-05-27T06:06:48;11.48;;;6.07;;
44750;SDS011;30477;48.224;11.470;2023-05-27T06:09:13;11.87;;;7.20;;
44750;SDS011;30477;48.224;11.470;2023-05-27T06:11:38;11.95;;;6.53;;
44750;SDS011;30477;48.224;11.470;2023-05-27T06:14:04;8.32;;;6.18;;
44750;SDS011;30477;48.224;11.470;2023-05-27T06:16:29;11.73;;;6.07;;
44750;SDS011;30477;48.224;11.470;2023-05-27T06:21:20;11.55;;;6.43;;
44750;SDS011;30477;48.224;11.470;2023-05-27T06:23:46;12.32;;;6.40;;
44750;SDS011;30477;48.224;11.470;2023-05-27T06:26:11;11.27;;;5.83;;
44750;SDS011;30477;48.224;11.470;2023-05-27T06:31:02;12.53;;;5.83;;
44750;SDS011;30477;48.224;11.470;2023-05-27T06:33:27;10.03;;;5.77;;
44750;SDS011;30477;48.224;11.470;2023-05-27T06:35:53;10.53;;;6.10;;
44750;SDS011;30477;48.224;11.470;2023-05-27T06:40:43;16.73;;;6.30;;
44750;SDS011;30477;48.224;11.470;2023-05-27T06:45:34;11.20;;;5.70;;
44750;SDS011;30477;48.224;11.470;2023-05-27T06:50:25;11.13;;;5.80;;
44750;SDS011;30477;48.224;11.470;2023-05-27T06:55:17;10.77;;;5.97;;
44750;SDS011;30477;48.224;11.470;2023-05-27T06:57:43;14.30;;;5.90;;
44750;SDS011;30477;48.224;11.470;2023-05-27T07:00:08;12.20;;;5.37;;
44750;SDS011;30477;48.224;11.470;2023-05-27T07:04:59;10.40;;;5.47;;
44750;SDS011;30477;48.224;11.470;2023-05-27T07:07:25;10.57;;;5.72;;
44750;SDS011;30477;48.224;11.470;2023-05-27T07:12:15;9.00;;;5.30;;
44750;SDS011;30477;48.224;11.470;2023-05-27T07:17:06;12.90;;;5.97;;
44750;SDS011;30477;48.224;11.470;2023-05-27T07:19:32;9.57;;;5.30;;
44750;SDS011;30477;48.224;11.470;2023-05-27T07:24:22;9.37;;;4.83;;
44750;SDS011;30477;48.224;11.470;2023-05-27T07:29:13;11.57;;;5.37;;
44750;SDS011;30477;48.224;11.470;2023-05-27T07:34:03;10.97;;;4.90;;
44750;SDS011;30477;48.224;11.470;2023-05-27T07:38:54;9.17;;;5.57;;
44750;SDS011;30477;48.224;11.470;2023-05-27T07:43:46;9.82;;;4.78;;
44750;SDS011;30477;48.224;11.470;2023-05-27T07:48:37;10.17;;;5.50;;
44750;SDS011;30477;48.224;11.470;2023-05-27T07:53:28;10.50;;;5.05;;
44750;SDS011;30477;48.224;11.470;2023-05-27T07:58:18;7.97;;;5.17;;
44750;SDS011;30477;48.224;11.470;2023-05-27T08:03:09;7.88;;;4.95;;
44750;SDS011;30477;48.224;11.470;2023-05-27T08:05:34;11.65;;;5.53;;
44750;SDS011;30477;48.224;11.470;2023-05-27T08:10:25;11.05;;;5.50;;
44750;SDS011;30477;48.224;11.470;2023-05-27T08:15:16;11.07;;;5.27;;
44750;SDS011;30477;48.224;11.470;2023-05-27T08:17:42;10.10;;;5.22;;
44750;SDS011;30477;48.224;11.470;2023-05-27T08:20:09;10.55;;;5.03;;
44750;SDS011;30477;48.224;11.470;2023-05-27T08:22:35;10.75;;;5.00;;
44750;SDS011;30477;48.224;11.470;2023-05-27T08:25:00;9.15;;;5.40;;
44750;SDS011;30477;48.224;11.470;2023-05-27T08:27:45;9.02;;;4.97;;
44750;SDS011;30477;48.224;11.470;2023-05-27T08:30:12;11.20;;;5.07;;
44750;SDS011;30477;48.224;11.470;2023-05-27T08:32:40;10.27;;;5.40;;
44750;SDS011;30477;48.224;11.470;2023-05-27T08:35:06;11.50;;;5.40;;
44750;SDS011;30477;48.224;11.470;2023-05-27T08:37:32;9.05;;;4.82;;
44750;SDS011;30477;48.224;11.470;2023-05-27T08:39:57;12.27;;;5.33;;
44750;SDS011;30477;48.224;11.470;2023-05-27T08:42:23;8.77;;;4.68;;
44750;SDS011;30477;48.224;11.470;2023-05-27T08:44:49;10.95;;;5.38;;
44750;SDS011;30477;48.224;11.470;2023-05-27T08:47:15;10.40;;;5.53;;
44750;SDS011;30477;48.224;11.470;2023-05-27T08:49:40;7.63;;;4.60;;
44750;SDS011;30477;48.224;11.470;2023-05-27T08:52:06;10.73;;;5.35;;
44750;SDS011;30477;48.224;11.470;2023-05-27T08:54:35;10.40;;;5.10;;
44750;SDS011;30477;48.224;11.470;2023-05-27T08:57:02;10.57;;;5.53;;
44750;SDS011;30477;48.224;11.470;2023-05-27T08:59:32;10.45;;;5.43;;
44750;SDS011;30477;48.224;11.470;2023-05-27T09:01:57;10.38;;;5.32;;
44750;SDS011;30477;48.224;11.470;2023-05-27T09:04:23;8.25;;;5.47;;
44750;SDS011;30477;48.224;11.470;2023-05-27T09:06:50;11.02;;;6.05;;
44750;SDS011;30477;48.224;11.470;2023-05-27T09:09:17;8.27;;;5.03;;
44750;SDS011;30477;48.224;11.470;2023-05-27T09:11:43;12.88;;;5.70;;
44750;SDS011;30477;48.224;11.470;2023-05-27T09:14:18;12.05;;;5.63;;
44750;SDS011;30477;48.224;11.470;2023-05-27T09:16:45;12.70;;;5.80;;
44750;SDS011;30477;48.224;11.470;2023-05-27T09:19:19;10.00;;;6.10;;
44750;SDS011;30477;48.224;11.470;2023-05-27T09:21:45;11.52;;;5.50;;
44750;SDS011;30477;48.224;11.470;2023-05-27T09:24:11;9.70;;;5.68;;
44750;SDS011;30477;48.224;11.470;2023-05-27T09:26:37;10.20;;;5.70;;
44750;SDS011;30477;48.224;11.470;2023-05-27T09:29:05;10.98;;;6.22;;
44750;SDS011;30477;48.224;11.470;2023-05-27T09:31:32;10.90;;;5.60;;
44750;SDS011;30477;48.224;11.470;2023-05-27T09:34:09;10.07;;;5.78;;
44750;SDS011;30477;48.224;11.470;2023-05-27T09:36:45;12.23;;;5.90;;
44750;SDS011;30477;48.224;11.470;2023-05-27T09:39:13;11.50;;;5.55;;
44750;SDS011;30477;48.224;11.470;2023-05-27T09:41:39;10.40;;;5.70;;
44750;SDS011;30477;48.224;11.470;2023-05-27T09:44:05;8.77;;;5.00;;
44750;SDS011;30477;48.224;11.470;2023-05-27T09:46:34;10.43;;;5.53;;
44750;SDS011;30477;48.224;11.470;2023-05-27T09:49:01;10.32;;;5.53;;
44750;SDS011;30477;48.224;11.470;2023-05-27T09:51:28;13.00;;;5.78;;
44750;SDS011;30477;48.224;11.470;2023-05-27T09:53:54;8.63;;;5.43;;
44750;SDS011;30477;48.224;11.470;2023-05-27T09:56:24;11.45;;;6.05;;
44750;SDS011;30477;48.224;11.470;2023-05-27T09:58:52;9.55;;;6.13;;
44750;SDS011;30477;48.224;11.470;2023-05-27T10:01:20;10.65;;;5.70;;
44750;SDS011;30477;48.224;11.470;2023-05-27T10:03:50;8.07;;;5.50;;
44750;SDS011;30477;48.224;11.470;2023-05-27T10:06:17;9.55;;;5.70;;
44750;SDS011;30477;48.224;11.470;2023-05-27T10:08:43;12.43;;;6.00;;
44750;SDS011;30477;48.224;11.470;2023-05-27T10:11:10;13.15;;;6.32;;
44750;SDS011;30477;48.224;11.470;2023-05-27T10:13:36;11.05;;;5.82;;
44750;SDS011;30477;48.224;11.470;2023-05-27T10:16:03;11.20;;;5.70;;
44750;SDS011;30477;48.224;11.470;2023-05-27T10:20:56;12.73;;;6.50;;
44750;SDS011;30477;48.224;11.470;2023-05-27T10:23:25;11.65;;;6.32;;
44750;SDS011;30477;48.224;11.470;2023-05-27T10:25:53;11.18;;;6.05;;
44750;SDS011;30477;48.224;11.470;2023-05-27T10:28:30;11.75;;;6.30;;
44750;SDS011;30477;48.224;11.470;2023-05-27T10:31:09;12.63;;;6.35;;
44750;SDS011;30477;48.224;11.470;2023-05-27T10:33:39;14.60;;;6.18;;
44750;SDS011;30477;48.224;11.470;2023-05-27T10:36:26;11.35;;;6.05;;
44750;SDS011;30477;48.224;11.470;2023-05-27T10:38:58;12.52;;;5.97;;
44750;SDS011;30477;48.224;11.470;2023-05-27T10:41:26;11.00;;;5.93;;
44750;SDS011;30477;48.224;11.470;2023-05-27T10:43:58;10.00;;;6.28;;
44750;SDS011;30477;48.224;11.470;2023-05-27T10:46:24;11.05;;;6.22;;
44750;SDS011;30477;48.224;11.470;2023-05-27T10:48:50;9.07;;;5.82;;
44750;SDS011;30477;48.224;11.470;2023-05-27T10:51:15;16.02;;;6.25;;
44750;SDS011;30477;48.224;11.470;2023-05-27T10:53:41;8.98;;;5.68;;
44750;SDS011;30477;48.224;11.470;2023-05-27T10:56:06;11.15;;;6.63;;
44750;SDS011;30477;48.224;11.470;2023-05-27T10:58:34;8.73;;;5.82;;
44750;SDS011;30477;48.224;11.470;2023-05-27T11:01:01;10.38;;;6.53;;
44750;SDS011;30477;48.224;11.470;2023-05-27T11:03:35;9.75;;;6.55;;
44750;SDS011;30477;48.224;11.470;2023-05-27T11:06:06;11.05;;;6.05;;
44750;SDS011;30477;48.224;11.470;2023-05-27T11:08:32;12.30;;;5.97;;
44750;SDS011;30477;48.224;11.470;2023-05-27T11:10:59;11.18;;;5.97;;
44750;SDS011;30477;48.224;11.470;2023-05-27T11:13:33;12.68;;;6.38;;
44750;SDS011;30477;48.224;11.470;2023-05-27T11:16:01;10.02;;;6.40;;
44750;SDS011;30477;48.224;11.470;2023-05-27T11:18:35;14.48;;;6.50;;
44750;SDS011;30477;48.224;11.470;2023-05-27T11:21:00;10.57;;;6.15;;
44750;SDS011;30477;48.224;11.470;2023-05-27T11:23:40;10.30;;;6.20;;
44750;SDS011;30477;48.224;11.470;2023-05-27T11:26:13;11.07;;;6.53;;
44750;SDS011;30477;48.224;11.470;2023-05-27T11:28:46;10.95;;;6.53;;
44750;SDS011;30477;48.224;11.470;2023-05-27T11:31:11;14.32;;;6.90;;
44750;SDS011;30477;48.224;11.470;2023-05-27T11:33:39;11.90;;;6.95;;
44750;SDS011;30477;48.224;11.470;2023-05-27T11:36:13;11.63;;;6.60;;
44750;SDS011;30477;48.224;11.470;2023-05-27T11:38:56;13.32;;;7.70;;
44750;SDS011;30477;48.224;11.470;2023-05-27T11:41:23;12.00;;;6.63;;
44750;SDS011;30477;48.224;11.470;2023-05-27T11:46:18;13.30;;;6.93;;
44750;SDS011;30477;48.224;11.470;2023-05-27T11:48:44;10.77;;;6.47;;
44750;SDS011;30477;48.224;11.470;2023-05-27T11:51:10;12.93;;;6.65;;
44750;SDS011;30477;48.224;11.470;2023-05-27T11:53:43;11.75;;;6.55;;
44750;SDS011;30477;48.224;11.470;2023-05-27T11:56:09;12.75;;;6.60;;
44750;SDS011;30477;48.224;11.470;2023-05-27T11:58:35;13.03;;;6.00;;
44750;SDS011;30477;48.224;11.470;2023-05-27T12:01:01;10.45;;;5.75;;
44750;SDS011;30477;48.224;11.470;2023-05-27T12:05:53;12.20;;;6.57;;
44750;SDS011;30477;48.224;11.470;2023-05-27T12:08:18;11.87;;;6.37;;
44750;SDS011;30477;48.224;11.470;2023-05-27T12:10:44;13.37;;;6.30;;
44750;SDS011;30477;48.224;11.470;2023-05-27T12:13:09;12.27;;;6.10;;
44750;SDS011;30477;48.224;11.470;2023-05-27T12:15:35;8.80;;;6.00;;
44750;SDS011;30477;48.224;11.470;2023-05-27T12:18:00;12.53;;;6.10;;
44750;SDS011;30477;48.224;11.470;2023-05-27T12:20:26;11.73;;;6.10;;
44750;SDS011;30477;48.224;11.470;2023-05-27T12:22:53;10.50;;;5.50;;
44750;SDS011;30477;48.224;11.470;2023-05-27T12:25:20;12.30;;;5.85;;
44750;SDS011;30477;48.224;11.470;2023-05-27T12:27:45;14.07;;;6.07;;
44750;SDS011;30477;48.224;11.470;2023-05-27T12:30:10;12.77;;;5.60;;
44750;SDS011;30477;48.224;11.470;2023-05-27T12:32:37;10.25;;;5.28;;
44750;SDS011;30477;48.224;11.470;2023-05-27T12:35:03;10.05;;;5.60;;
44750;SDS011;30477;48.224;11.470;2023-05-27T12:37:30;12.85;;;6.00;;
44750;SDS011;30477;48.224;11.470;2023-05-27T12:39:55;7.60;;;5.70;;
44750;SDS011;30477;48.224;11.470;2023-05-27T12:42:20;8.77;;;5.40;;
44750;SDS011;30477;48.224;11.470;2023-05-27T12:44:46;10.53;;;5.33;;
44750;SDS011;30477;48.224;11.470;2023-05-27T12:47:11;10.23;;;5.83;;
44750;SDS011;30477;48.224;11.470;2023-05-27T12:49:36;9.10;;;5.37;;
44750;SDS011;30477;48.224;11.470;2023-05-27T12:52:02;9.37;;;5.30;;
44750;SDS011;30477;48.224;11.470;2023-05-27T12:54:28;10.07;;;5.80;;
44750;SDS011;30477;48.224;11.470;2023-05-27T12:56:54;10.45;;;5.50;;
44750;SDS011;30477;48.224;11.470;2023-05-27T12:59:20;9.63;;;5.38;;
44750;SDS011;30477;48.224;11.470;2023-05-27T13:01:45;9.43;;;5.33;;
44750;SDS011;30477;48.224;11.470;2023-05-27T13:04:11;8.80;;;5.03;;
44750;SDS011;30477;48.224;11.470;2023-05-27T13:06:36;11.00;;;4.90;;
44750;SDS011;30477;48.224;11.470;2023-05-27T13:09:02;10.73;;;5.20;;
44750;SDS011;30477;48.224;11.470;2023-05-27T13:11:27;10.38;;;5.38;;
44750;SDS011;30477;48.224;11.470;2023-05-27T13:13:53;9.77;;;5.28;;
44750;SDS011;30477;48.224;11.470;2023-05-27T13:16:18;7.23;;;4.70;;
44750;SDS011;30477;48.224;11.470;2023-05-27T13:18:45;9.90;;;5.38;;
44750;SDS011;30477;48.224;11.470;2023-05-27T13:21:10;10.65;;;5.38;;
44750;SDS011;30477;48.224;11.470;2023-05-27T13:23:36;7.63;;;5.13;;
44750;SDS011;30477;48.224;11.470;2023-05-27T13:26:01;8.13;;;5.00;;
44750;SDS011;30477;48.224;11.470;2023-05-27T13:28:26;11.90;;;5.37;;
44750;SDS011;30477;48.224;11.470;2023-05-27T13:30:52;9.57;;;5.30;;
44750;SDS011;30477;48.224;11.470;2023-05-27T13:33:17;7.73;;;4.70;;
44750;SDS011;30477;48.224;11.470;2023-05-27T13:35:42;9.37;;;5.30;;
44750;SDS011;30477;48.224;11.470;2023-05-27T13:38:09;9.25;;;5.45;;
44750;SDS011;30477;48.224;11.470;2023-05-27T13:40:38;10.90;;;5.10;;
44750;SDS011;30477;48.224;11.470;2023-05-27T13:43:04;11.97;;;5.17;;
44750;SDS011;30477;48.224;11.470;2023-05-27T13:45:29;9.50;;;4.77;;
44750;SDS011;30477;48.224;11.470;2023-05-27T13:47:54;8.17;;;4.67;;
44750;SDS011;30477;48.224;11.470;2023-05-27T13:50:20;9.23;;;5.00;;
44750;SDS011;30477;48.224;11.470;2023-05-27T13:52:45;10.40;;;4.80;;
44750;SDS011;30477;48.224;11.470;2023-05-27T13:55:12;11.18;;;5.22;;
44750;SDS011;30477;48.224;11.470;2023-05-27T13:57:38;9.40;;;5.28;;
44750;SDS011;30477;48.224;11.470;2023-05-27T14:00:05;12.15;;;5.00;;
44750;SDS011;30477;48.224;11.470;2023-05-27T14:02:31;10.20;;;5.32;;
44750;SDS011;30477;48.224;11.470;2023-05-27T14:04:56;11.53;;;5.53;;
44750;SDS011;30477;48.224;11.470;2023-05-27T14:07:22;8.23;;;4.97;;
44750;SDS011;30477;48.224;11.470;2023-05-27T14:09:49;9.48;;;4.72;;
44750;SDS011;30477;48.224;11.470;2023-05-27T14:12:14;8.27;;;4.87;;
44750;SDS011;30477;48.224;11.470;2023-05-27T14:14:39;9.30;;;5.30;;
44750;SDS011;30477;48.224;11.470;2023-05-27T14:17:05;8.73;;;5.20;;
44750;SDS011;30477;48.224;11.470;2023-05-27T14:19:33;10.15;;;5.50;;
44750;SDS011;30477;48.224;11.470;2023-05-27T14:21:58;8.10;;;4.60;;
44750;SDS011;30477;48.224;11.470;2023-05-27T14:24:24;12.27;;;5.03;;
44750;SDS011;30477;48.224;11.470;2023-05-27T14:26:49;10.45;;;4.93;;
44750;SDS011;30477;48.224;11.470;2023-05-27T14:29:15;7.97;;;4.40;;
44750;SDS011;30477;48.224;11.470;2023-05-27T14:31:40;10.03;;;4.73;;
44750;SDS011;30477;48.224;11.470;2023-05-27T14:34:05;9.70;;;4.70;;
44750;SDS011;30477;48.224;11.470;2023-05-27T14:36:31;8.73;;;4.93;;
44750;SDS011;30477;48.224;11.470;2023-05-27T14:38:56;11.43;;;4.50;;
44750;SDS011;30477;48.224;11.470;2023-05-27T14:41:21;8.23;;;4.27;;
44750;SDS011;30477;48.224;11.470;2023-05-27T14:43:47;9.47;;;4.40;;
44750;SDS011;30477;48.224;11.470;2023-05-27T14:46:12;8.97;;;4.60;;
44750;SDS011;30477;48.224;11.470;2023-05-27T14:48:37;16.07;;;4.50;;
44750;SDS011;30477;48.224;11.470;2023-05-27T14:51:03;9.67;;;4.40;;
44750;SDS011;30477;48.224;11.470;2023-05-27T14:53:29;8.93;;;4.50;;
44750;SDS011;30477;48.224;11.470;2023-05-27T14:55:55;8.32;;;4.50;;
44750;SDS011;30477;48.224;11.470;2023-05-27T14:58:20;8.80;;;4.03;;
44750;SDS011;30477;48.224;11.470;2023-05-27T15:00:45;14.70;;;4.40;;
44750;SDS011;30477;48.224;11.470;2023-05-27T15:03:11;6.67;;;3.97;;
44750;SDS011;30477;48.224;11.470;2023-05-27T15:05:36;8.33;;;4.27;;
44750;SDS011;30477;48.224;11.470;2023-05-27T15:08:02;9.90;;;4.33;;
44750;SDS011;30477;48.224;11.470;2023-05-27T15:10:30;9.18;;;4.60;;
44750;SDS011;30477;48.224;11.470;2023-05-27T15:12:55;10.33;;;4.10;;
44750;SDS011;30477;48.224;11.470;2023-05-27T15:15:21;6.77;;;4.33;;
44750;SDS011;30477;48.224;11.470;2023-05-27T15:17:46;8.60;;;4.23;;
44750;SDS011;30477;48.224;11.470;2023-05-27T15:20:12;7.00;;;4.20;;